Identifiez vous afin de poster une observation
 • Tableaux des observations reportées par F4JFI - Page 1   

Tableaux des observations de F4JFI

F4JFI a posté 4523 observation(s).


Pages : 1 - 2 - 3 - 4 - 5 - 6 - 7 - 8 - 9 - 10 - 11 - 12 - 13 - 14 - 15 - 16 - 17 - 18 - 19 - 20 - 21 - 22 - 23 - 24 - 25 - 26 - 27 - 28 - 29 - 30 - 31 - 32 - 33 - 34 - 35 - 36 - 37 - 38 - 39 - 40 - 41 - 42 - 43 - 44 - 45 - 46 - 47 - 48 - 49 - 50 - 51 - 52 - 53 - 54 - 55 - 56 - 57 - 58 - 59 - 60 - 61 - 62 - 63 - 64 - 65 - 66 - 67 - 68 - 69 - 70 - 71 - 72 - 73 - 74 - 75 - 76 - 77 - 78 - 79 - 80 - 81 - 82 - 83 - 84 - 85 - 86 - 87 - 88 - 89 - 90 - 91 - 92 - 93 - 94 - 95 - 96 - 97 - 98 - 99 - 100 - 101 - 102 - 103 - 104 - 105 - 106 - 107 - 108 - 109 - 110 - 111 - 112 - 113 - 114 - 115 - 116 - 117 - 118 - 119 - 120 - 121 - 122 - 123 - 124 - 125 - 126 - 127 - 128 - 129 - 130 - 131 - 132 - 133 - 134 - 135 - 136 - 137 - 138 - 139 - 140 - 141 - 142 - 143 - 144 - 145 - 146 - 147 - 148 - 149 - 150 - 151 - 152 - 153 - 154 - 155 - 156 - 157 - 158 - 159 - 160 - 161 - 162 - 163 - 164 - 165 - 166 - 167 - 168 - 169 - 170 - 171 - 172 - 173 - 174 - 175 - 176 - 177 - 178 - 179 - 180 - 181 - 182 - 183 - 184 - 185 - 186 - 187 - 188 - 189 - 190 - 191 - 192 - 193 - 194 - 195 - 196 - 197 - 198 - 199 - 200 - 201 - 202 - 203 - 204 - 205 - 206 - 207 - 208 - 209 - 210 - 211 - 212 - 213 - 214 - 215 - 216 - 217 - 218 - 219 - 220 - 221 - 222 - 223 - 224 - 225 - 226 - 227 -

DateHeureVillePhénomènesCommentaireContact
25/12/202200:02Périgueux - Alt. 88mTempérature (7.3°C) Humidite : 95% Point de rosée : 6.55 C Pression : 1014 hPa Humidex : 7.1 2022-12-25 00:02:37F4JFI
24/12/202223:00Périgueux - Alt. 88mTempérature (8.1°C) Humidite : 95% Point de rosée : 7.35 C Pression : 1014 hPa Humidex : 8.2 2022-12-24 23:00:05F4JFI
24/12/202222:00Périgueux - Alt. 88mTempérature (8.7°C) Humidite : 95% Point de rosée : 7.94 C Pression : 1014 hPa Humidex : 9.1 2022-12-24 22:00:10F4JFI
24/12/202221:00Périgueux - Alt. 88mTempérature (9.3°C) Humidite : 94% Point de rosée : 8.38 C Pression : 1014 hPa Humidex : 9.9 2022-12-24 21:00:04F4JFI
24/12/202220:00Périgueux - Alt. 88mTempérature (10.1°C) Humidite : 93% Point de rosée : 9.02 C Pression : 1014 hPa Humidex : 10.9 2022-12-24 20:00:07F4JFI
24/12/202219:00Périgueux - Alt. 88mTempérature (11.2°C) Humidite : 91% Point de rosée : 9.78 C Pression : 1014 hPa Humidex : 12.4 2022-12-24 19:00:04F4JFI
24/12/202217:00Périgueux - Alt. 88mTempérature (16.3°C) Humidite : 73% Point de rosée : 11.45 C Pression : 1014 hPa Humidex : 18.3 2022-12-24 17:00:05F4JFI
24/12/202216:00Périgueux - Alt. 88mTempérature (17.2°C) Humidite : 70% Point de rosée : 11.68 C Pression : 1014 hPa Humidex : 19.3 2022-12-24 16:00:09F4JFI
24/12/202214:00Périgueux - Alt. 88mTempérature (16.7°C) Humidite : 79% Point de rosée : 13.04 C Pression : 1014 hPa Humidex : 19.5 2022-12-24 14:00:07F4JFI
24/12/202213:00Périgueux - Alt. 88mTempérature (15.6°C) Humidite : 82% Point de rosée : 12.54 C Pression : 1015 hPa Humidex : 18.1 2022-12-24 13:00:05F4JFI
24/12/202212:00Périgueux - Alt. 88mTempérature (13.8°C) Humidite : 90% Point de rosée : 12.19 C Pression : 1015 hPa Humidex : 16.2 2022-12-24 12:00:10F4JFI
24/12/202211:00Périgueux - Alt. 88mTempérature (12.3°C) Humidite : 95% Point de rosée : 11.52 C Pression : 1015 hPa Humidex : 14.3 2022-12-24 11:00:04F4JFI
24/12/202210:00Périgueux - Alt. 88mTempérature (11.7°C) Humidite : 96% Point de rosée : 11.08 C Pression : 1015 hPa Humidex : 13.5 2022-12-24 10:00:05F4JFI
24/12/202209:00Périgueux - Alt. 88mTempérature (11.7°C) Humidite : 95% Point de rosée : 10.93 C Pression : 1015 hPa Humidex : 13.4 2022-12-24 09:00:06F4JFI
24/12/202208:00Périgueux - Alt. 88mTempérature (11.8°C) Humidite : 96% Point de rosée : 11.18 C Pression : 1015 hPa Humidex : 13.6 2022-12-24 08:00:08F4JFI
24/12/202207:00Périgueux - Alt. 88mTempérature (11.8°C) Humidite : 95% Point de rosée : 11.02 C Pression : 1016 hPa Humidex : 13.6 2022-12-24 07:00:04F4JFI
24/12/202206:00Périgueux - Alt. 88mTempérature (12.2°C) Humidite : 94% Point de rosée : 11.26 C Pression : 1016 hPa Humidex : 14.1 2022-12-24 06:00:05F4JFI
24/12/202205:00Périgueux - Alt. 88mTempérature (12.6°C) Humidite : 93% Point de rosée : 11.50 C Pression : 1016 hPa Humidex : 14.6 2022-12-24 05:00:09F4JFI
24/12/202203:04Périgueux - Alt. 88mTempérature (12.6°C) Humidite : 94% Point de rosée : 11.66 C Pression : 1017 hPa Humidex : 14.7 2022-12-24 03:04:24F4JFI
24/12/202202:05Périgueux - Alt. 88mTempérature (12.8°C) Humidite : 94% Point de rosée : 11.86 C Pression : 1017 hPa Humidex : 15 2022-12-24 02:05:02F4JFI


Meteociel™ | © 2004 - 2023 | Forums Météo | Prévi Paris | Paramètres des cookies | Cookies | Média - Meteociel | Mentions légales | Contact